createdAt,value
2022-07-29T00:00:00.280Z,51.05
2022-07-29T00:02:28.244Z,51.26
2022-07-29T00:04:55.295Z,51.11
2022-07-29T00:07:22.203Z,51.35
2022-07-29T00:09:51.610Z,51.45
2022-07-29T00:12:25.419Z,51.36
2022-07-29T00:14:55.398Z,52.14
2022-07-29T00:17:22.496Z,52.22
2022-07-29T00:19:49.267Z,52.43
2022-07-29T00:22:16.364Z,52.96
2022-07-29T00:24:43.219Z,52.56
2022-07-29T00:27:10.039Z,51.79
2022-07-29T00:29:36.947Z,52.53
2022-07-29T00:32:04.305Z,52.60
2022-07-29T00:34:51.480Z,52.67
2022-07-29T00:37:18.327Z,52.61
2022-07-29T00:39:45.057Z,53.00
2022-07-29T00:42:12.128Z,53.18
2022-07-29T00:44:42.686Z,53.03
2022-07-29T00:47:11.248Z,53.01
2022-07-29T00:49:40.602Z,52.00
2022-07-29T00:52:08.677Z,52.68
2022-07-29T00:54:36.312Z,52.23
2022-07-29T00:57:10.756Z,51.94
2022-07-29T00:59:37.668Z,52.47
2022-07-29T01:02:04.857Z,52.31
2022-07-29T01:04:33.021Z,52.83
2022-07-29T01:07:04.468Z,54.11
2022-07-29T01:09:34.481Z,53.36
2022-07-29T01:12:14.204Z,52.81
2022-07-29T01:14:41.670Z,52.75
2022-07-29T01:17:38.011Z,53.57
2022-07-29T01:20:31.772Z,53.17
2022-07-29T01:23:33.477Z,54.18
2022-07-29T01:26:32.497Z,53.61
2022-07-29T01:29:07.649Z,52.46
2022-07-29T01:31:58.696Z,52.72
2022-07-29T01:34:32.764Z,52.87
2022-07-29T01:37:21.592Z,52.79
2022-07-29T01:39:52.156Z,53.17
2022-07-29T01:42:33.366Z,52.59
2022-07-29T01:45:10.949Z,53.57
2022-07-29T01:47:46.438Z,53.09
2022-07-29T01:50:17.526Z,53.76
2022-07-29T01:52:50.809Z,54.16
2022-07-29T01:55:21.267Z,53.66
2022-07-29T01:57:51.028Z,53.99
2022-07-29T02:00:18.697Z,53.32
2022-07-29T02:02:48.425Z,53.45
2022-07-29T02:05:18.693Z,55.21
2022-07-29T02:07:48.468Z,54.36
2022-07-29T02:10:18.066Z,53.67
2022-07-29T02:12:50.801Z,53.67
2022-07-29T02:15:19.286Z,52.61
2022-07-29T02:18:08.696Z,53.59
2022-07-29T02:20:37.236Z,53.24
2022-07-29T02:23:05.527Z,52.93
2022-07-29T02:25:37.223Z,53.09
2022-07-29T02:28:07.048Z,54.28
2022-07-29T02:30:36.117Z,53.10
2022-07-29T02:33:04.536Z,52.90
2022-07-29T02:35:34.975Z,53.60
2022-07-29T02:38:22.159Z,53.65
2022-07-29T02:40:51.056Z,53.50
2022-07-29T02:43:19.767Z,54.18
2022-07-29T02:45:52.409Z,54.02
2022-07-29T02:48:21.776Z,53.73
2022-07-29T02:50:55.777Z,53.66
2022-07-29T02:53:27.835Z,53.17
2022-07-29T02:56:00.639Z,53.58
2022-07-29T02:58:33.610Z,53.46
2022-07-29T03:01:06.478Z,53.67
2022-07-29T03:03:37.185Z,53.67
2022-07-29T03:06:05.076Z,54.09
2022-07-29T03:08:33.771Z,54.83
2022-07-29T03:11:02.901Z,55.33
2022-07-29T03:13:31.328Z,54.79
2022-07-29T03:16:00.149Z,54.72
2022-07-29T03:18:27.935Z,56.29
2022-07-29T03:20:55.107Z,55.81
2022-07-29T03:23:24.980Z,55.74
2022-07-29T03:25:52.255Z,55.37
2022-07-29T03:28:20.059Z,55.84
2022-07-29T03:30:49.284Z,55.73
2022-07-29T03:33:16.996Z,54.78
2022-07-29T03:35:43.827Z,54.99
2022-07-29T03:38:10.676Z,55.42
2022-07-29T03:40:53.277Z,55.26
2022-07-29T03:43:23.008Z,56.26
2022-07-29T03:45:53.099Z,57.04
2022-07-29T03:48:23.324Z,56.67
2022-07-29T03:50:51.794Z,56.52
2022-07-29T03:53:19.287Z,57.78
2022-07-29T03:55:54.977Z,58.27
2022-07-29T03:58:23.163Z,58.19
2022-07-29T04:00:50.836Z,58.43
2022-07-29T04:03:17.804Z,59.02
2022-07-29T04:05:44.658Z,60.20
2022-07-29T04:08:11.447Z,58.83
2022-07-29T04:10:39.280Z,59.35
2022-07-29T04:13:06.443Z,59.50
2022-07-29T04:15:33.273Z,58.32
2022-07-29T04:18:00.523Z,57.08
2022-07-29T04:20:27.455Z,56.80
2022-07-29T04:22:54.255Z,55.37
2022-07-29T04:25:21.187Z,53.56
2022-07-29T04:28:03.295Z,51.42
2022-07-29T04:30:31.940Z,50.53
2022-07-29T04:32:59.207Z,48.53
2022-07-29T04:35:26.095Z,46.75
2022-07-29T04:37:52.955Z,45.12
2022-07-29T04:40:39.835Z,45.11
2022-07-29T04:43:26.683Z,45.93
2022-07-29T04:45:54.238Z,46.83
2022-07-29T04:48:25.293Z,46.94
2022-07-29T04:50:55.455Z,46.38
2022-07-29T04:53:22.325Z,45.56
2022-07-29T04:55:49.082Z,44.19
2022-07-29T04:58:16.203Z,43.33
2022-07-29T05:00:43.025Z,43.32
2022-07-29T05:03:09.884Z,43.21
2022-07-29T05:05:36.938Z,42.68
2022-07-29T05:08:04.250Z,41.53
2022-07-29T05:10:31.041Z,40.81
2022-07-29T05:12:57.905Z,38.67
2022-07-29T05:15:24.770Z,37.57
2022-07-29T05:17:51.615Z,36.42
2022-07-29T05:20:19.560Z,35.88
2022-07-29T05:22:46.398Z,34.08
2022-07-29T05:25:13.136Z,33.71
2022-07-29T05:27:39.936Z,32.46
2022-07-29T05:30:07.426Z,31.99
2022-07-29T05:32:34.160Z,31.06
2022-07-29T05:35:01.144Z,31.96
2022-07-29T05:37:27.975Z,33.28
2022-07-29T05:39:56.815Z,33.21
2022-07-29T05:42:25.709Z,31.87
2022-07-29T05:44:53.005Z,32.35
2022-07-29T05:47:19.895Z,31.91
2022-07-29T05:49:47.282Z,32.21
2022-07-29T05:52:16.862Z,30.88
2022-07-29T05:54:44.365Z,30.44
2022-07-29T05:57:22.705Z,30.53
2022-07-29T05:59:50.518Z,29.68
2022-07-29T06:02:18.391Z,29.84
2022-07-29T06:04:45.398Z,28.18
2022-07-29T06:07:16.131Z,28.92
2022-07-29T06:09:43.466Z,30.42
2022-07-29T06:12:10.816Z,28.99
2022-07-29T06:14:38.986Z,30.07
2022-07-29T06:17:06.946Z,29.87
2022-07-29T06:19:36.556Z,31.58
2022-07-29T06:22:03.816Z,31.69
2022-07-29T06:24:30.586Z,31.57
2022-07-29T06:26:57.365Z,31.94
2022-07-29T06:29:24.313Z,30.78
2022-07-29T06:31:51.637Z,31.27
2022-07-29T06:34:21.194Z,30.65
2022-07-29T06:36:47.974Z,29.66
2022-07-29T06:39:15.668Z,29.67
2022-07-29T06:41:43.887Z,28.82
2022-07-29T06:44:12.902Z,28.99
2022-07-29T06:46:40.063Z,29.00
2022-07-29T06:49:07.172Z,26.69
2022-07-29T06:51:34.489Z,26.42
2022-07-29T06:54:03.304Z,26.27
2022-07-29T06:56:38.979Z,25.30
2022-07-29T06:59:08.884Z,25.00
2022-07-29T07:01:38.281Z,24.57
2022-07-29T07:04:05.717Z,24.41
2022-07-29T07:06:35.046Z,24.97
2022-07-29T07:09:02.804Z,24.17
2022-07-29T07:11:30.054Z,22.95
2022-07-29T07:14:14.540Z,23.85
2022-07-29T07:16:41.531Z,24.80
2022-07-29T07:19:09.505Z,23.18
2022-07-29T07:21:36.656Z,23.49
2022-07-29T07:24:03.765Z,22.78
2022-07-29T07:26:30.785Z,23.57
2022-07-29T07:28:57.993Z,24.27
2022-07-29T07:31:25.975Z,24.95
2022-07-29T07:33:56.391Z,25.84
2022-07-29T07:36:24.286Z,24.81
2022-07-29T07:38:51.994Z,25.00
2022-07-29T07:41:19.103Z,24.43
2022-07-29T07:43:49.136Z,25.19
2022-07-29T07:46:16.597Z,24.33
2022-07-29T07:48:43.637Z,24.36
2022-07-29T07:51:10.843Z,26.71
2022-07-29T07:53:37.817Z,25.72
2022-07-29T07:56:11.078Z,24.84
2022-07-29T07:58:39.894Z,24.50
2022-07-29T08:01:07.102Z,24.12
2022-07-29T08:03:34.566Z,24.65
2022-07-29T08:06:01.732Z,24.85
2022-07-29T08:08:28.580Z,26.26
2022-07-29T08:10:57.138Z,27.24
2022-07-29T08:13:28.421Z,27.78
2022-07-29T08:16:02.786Z,28.02
2022-07-29T08:18:32.415Z,26.75
2022-07-29T08:20:59.778Z,27.21
2022-07-29T08:23:32.850Z,28.07
2022-07-29T08:26:14.392Z,28.45
2022-07-29T08:28:46.994Z,29.77
2022-07-29T08:31:14.950Z,28.44
2022-07-29T08:33:41.976Z,28.17
2022-07-29T08:36:09.526Z,27.71
2022-07-29T08:38:36.461Z,27.50
2022-07-29T08:41:03.537Z,26.02
2022-07-29T08:43:30.640Z,25.17
2022-07-29T08:45:57.749Z,26.07
2022-07-29T08:48:25.913Z,25.77
2022-07-29T08:50:57.533Z,25.72
2022-07-29T08:53:28.281Z,25.41
2022-07-29T08:55:56.205Z,25.59
2022-07-29T08:58:25.581Z,25.07
2022-07-29T09:00:55.563Z,25.64
2022-07-29T09:03:30.703Z,23.23
2022-07-29T09:05:59.047Z,24.91
2022-07-29T09:08:26.585Z,24.59
2022-07-29T09:10:54.550Z,23.67
2022-07-29T09:13:21.454Z,22.78
2022-07-29T09:15:48.341Z,23.82
2022-07-29T09:18:36.505Z,22.87
2022-07-29T09:21:25.976Z,23.43
2022-07-29T09:24:08.444Z,24.05
2022-07-29T09:26:38.546Z,25.68
2022-07-29T09:29:17.770Z,23.21
2022-07-29T09:31:49.973Z,24.96
2022-07-29T09:34:22.606Z,24.32
2022-07-29T09:36:51.400Z,23.96
2022-07-29T09:39:28.456Z,24.40
2022-07-29T09:41:57.511Z,21.93
2022-07-29T09:44:25.574Z,20.66
2022-07-29T09:47:10.743Z,21.04
2022-07-29T09:49:55.865Z,20.09
2022-07-29T09:52:22.867Z,20.57
2022-07-29T09:54:49.836Z,20.18
2022-07-29T09:57:30.030Z,20.02
2022-07-29T10:00:19.315Z,20.32
2022-07-29T10:02:47.240Z,18.97
2022-07-29T10:05:22.838Z,18.85
2022-07-29T10:07:55.248Z,20.26
2022-07-29T10:10:24.245Z,21.11
2022-07-29T10:12:54.019Z,22.24
2022-07-29T10:15:24.214Z,21.99
2022-07-29T10:17:52.465Z,22.29
2022-07-29T10:20:19.745Z,22.62
2022-07-29T10:22:53.697Z,20.88
2022-07-29T10:25:21.776Z,19.69
2022-07-29T10:27:50.115Z,20.67
2022-07-29T10:30:18.102Z,19.40
2022-07-29T10:33:12.720Z,20.75
2022-07-29T10:35:54.675Z,21.87
2022-07-29T10:38:30.878Z,22.91
2022-07-29T10:41:28.987Z,22.51
2022-07-29T10:44:12.308Z,22.93
2022-07-29T10:46:44.931Z,21.45
2022-07-29T10:49:19.588Z,22.75
2022-07-29T10:51:57.815Z,25.99
2022-07-29T10:54:37.554Z,24.18
2022-07-29T10:57:54.151Z,24.45
2022-07-29T11:00:32.923Z,21.00
2022-07-29T11:03:00.719Z,20.08
2022-07-29T11:05:55.495Z,20.36
2022-07-29T11:08:28.018Z,18.20
2022-07-29T11:11:22.185Z,18.12
2022-07-29T11:13:52.326Z,17.67
2022-07-29T11:16:27.845Z,17.28
2022-07-29T11:19:13.612Z,16.93
2022-07-29T11:21:54.045Z,16.33
2022-07-29T11:24:30.028Z,16.54
2022-07-29T11:27:17.998Z,17.49
2022-07-29T11:29:56.629Z,17.91
2022-07-29T11:32:29.550Z,16.85
2022-07-29T11:35:19.118Z,16.31
2022-07-29T11:38:31.921Z,16.12
2022-07-29T11:41:27.557Z,15.23
2022-07-29T11:44:00.184Z,15.17
2022-07-29T11:46:50.080Z,16.11
2022-07-29T11:49:31.516Z,14.74
2022-07-29T11:52:03.153Z,17.10
2022-07-29T11:54:58.365Z,16.78
2022-07-29T11:57:23.104Z,18.21
2022-07-29T12:00:12.555Z,18.96
2022-07-29T12:02:48.195Z,16.40
2022-07-29T12:08:12.745Z,16.14
2022-07-29T12:10:43.076Z,15.91
2022-07-29T12:13:11.448Z,16.05
2022-07-29T12:15:47.007Z,14.88
2022-07-29T12:18:24.607Z,14.95
2022-07-29T12:20:59.574Z,14.59
2022-07-29T12:23:34.823Z,14.74
2022-07-29T12:26:07.659Z,14.37
2022-07-29T12:28:39.600Z,14.33
2022-07-29T12:31:08.265Z,14.34
2022-07-29T12:33:36.179Z,14.71
2022-07-29T12:36:10.338Z,13.85
2022-07-29T12:38:41.763Z,14.43
2022-07-29T12:41:10.034Z,13.74
2022-07-29T12:43:37.084Z,15.15
2022-07-29T12:46:15.938Z,15.29
2022-07-29T12:48:44.610Z,14.67
2022-07-29T12:51:13.555Z,17.62
2022-07-29T12:53:43.217Z,15.65
2022-07-29T12:56:40.662Z,15.27
2022-07-29T12:59:23.549Z,17.05
2022-07-29T13:01:52.386Z,18.19
2022-07-29T13:04:56.075Z,17.73
2022-07-29T13:07:55.804Z,18.47
2022-07-29T13:10:23.918Z,21.65
2022-07-29T13:13:09.945Z,19.82
2022-07-29T13:15:45.007Z,20.44
2022-07-29T13:18:37.628Z,19.59
2022-07-29T13:21:16.703Z,18.06
2022-07-29T13:23:46.086Z,18.00
2022-07-29T13:26:13.166Z,17.28
2022-07-29T13:28:44.042Z,17.81
2022-07-29T13:31:11.433Z,17.81
2022-07-29T13:33:38.515Z,18.18
2022-07-29T13:36:05.928Z,18.00
2022-07-29T13:38:32.854Z,18.57
2022-07-29T13:41:00.245Z,17.13
2022-07-29T13:43:27.188Z,17.03
2022-07-29T13:45:54.122Z,16.96
2022-07-29T13:48:21.865Z,15.99
2022-07-29T13:50:49.439Z,16.33
2022-07-29T13:53:17.998Z,16.77
2022-07-29T13:55:45.658Z,15.61
2022-07-29T13:58:15.148Z,16.43
2022-07-29T14:00:42.820Z,16.58
2022-07-29T14:03:09.636Z,15.60
2022-07-29T14:05:36.486Z,16.69
2022-07-29T14:08:03.376Z,15.95
2022-07-29T14:10:30.405Z,15.88
2022-07-29T14:12:57.274Z,16.12
2022-07-29T14:15:24.648Z,15.69
2022-07-29T14:17:51.467Z,15.48
2022-07-29T14:20:19.087Z,15.17
2022-07-29T14:22:45.973Z,16.96
2022-07-29T14:25:15.028Z,15.06
2022-07-29T14:27:42.697Z,15.49
2022-07-29T14:30:10.223Z,15.67
2022-07-29T14:32:37.029Z,17.06
2022-07-29T14:35:04.476Z,16.10
2022-07-29T14:37:40.025Z,15.58
2022-07-29T14:40:08.500Z,15.67
2022-07-29T14:42:35.341Z,15.78
2022-07-29T14:45:02.223Z,16.88
2022-07-29T14:47:29.007Z,17.43
2022-07-29T14:49:55.766Z,16.68
2022-07-29T14:52:22.712Z,16.12
2022-07-29T14:54:49.769Z,16.64
2022-07-29T14:57:17.526Z,15.54
2022-07-29T14:59:44.278Z,15.20
2022-07-29T15:02:11.162Z,15.37
2022-07-29T15:04:37.957Z,17.17
2022-07-29T15:07:05.046Z,16.84
2022-07-29T15:09:31.924Z,17.29
2022-07-29T15:12:04.111Z,18.24
2022-07-29T15:14:30.926Z,17.12
2022-07-29T15:16:57.980Z,16.97
2022-07-29T15:19:24.920Z,16.95
2022-07-29T15:21:51.735Z,16.89
2022-07-29T15:24:18.752Z,16.51
2022-07-29T15:26:45.844Z,16.44
2022-07-29T15:29:12.774Z,16.06
2022-07-29T15:31:39.701Z,17.50
2022-07-29T15:34:07.573Z,16.41
2022-07-29T15:36:52.527Z,16.48
2022-07-29T15:39:21.115Z,17.92
2022-07-29T15:41:47.996Z,17.50
2022-07-29T15:44:14.757Z,17.72
2022-07-29T15:47:00.997Z,16.85
2022-07-29T15:49:47.887Z,17.31
2022-07-29T15:52:25.032Z,17.85
2022-07-29T15:54:56.415Z,17.01
2022-07-29T15:57:24.132Z,17.78
2022-07-29T15:59:51.016Z,18.54
2022-07-29T16:02:17.920Z,17.09
2022-07-29T16:04:44.857Z,17.80
2022-07-29T16:07:11.785Z,18.53
2022-07-29T16:09:38.614Z,18.63
2022-07-29T16:12:14.823Z,19.57
2022-07-29T16:14:43.600Z,21.12
2022-07-29T16:17:14.995Z,20.04
2022-07-29T16:19:43.367Z,19.12
2022-07-29T16:22:10.536Z,20.29
2022-07-29T16:24:37.509Z,20.32
2022-07-29T16:27:04.636Z,20.22
2022-07-29T16:29:31.507Z,21.11
2022-07-29T16:31:58.427Z,20.97
2022-07-29T16:34:25.245Z,21.07
2022-07-29T16:36:52.075Z,21.48
2022-07-29T16:39:18.826Z,21.41
2022-07-29T16:41:45.570Z,21.22
2022-07-29T16:44:12.445Z,21.24
2022-07-29T16:46:41.424Z,22.06
2022-07-29T16:49:08.518Z,21.98
2022-07-29T16:51:35.404Z,22.47
2022-07-29T16:54:02.166Z,22.20
2022-07-29T16:56:29.012Z,21.85
2022-07-29T16:58:58.502Z,22.04
2022-07-29T17:01:25.434Z,23.11
2022-07-29T17:04:07.428Z,24.16
2022-07-29T17:06:39.999Z,25.26
2022-07-29T17:09:08.957Z,25.89
2022-07-29T17:11:53.171Z,24.37
2022-07-29T17:14:27.810Z,24.64
2022-07-29T17:17:00.984Z,26.64
2022-07-29T17:19:34.099Z,27.77
2022-07-29T17:22:19.389Z,28.12
2022-07-29T17:24:47.670Z,28.28
2022-07-29T17:27:14.747Z,29.69
2022-07-29T17:29:41.948Z,29.44
2022-07-29T17:32:10.193Z,28.72
2022-07-29T17:34:38.558Z,27.56
2022-07-29T17:37:08.038Z,29.53
2022-07-29T17:39:35.775Z,29.46
2022-07-29T17:42:03.812Z,30.35
2022-07-29T17:44:30.772Z,29.46
2022-07-29T17:46:59.570Z,29.12
2022-07-29T17:49:27.202Z,29.25
2022-07-29T17:51:57.655Z,28.82
2022-07-29T17:54:28.967Z,28.53
2022-07-29T17:56:58.229Z,28.74
2022-07-29T17:59:25.207Z,28.86
2022-07-29T18:01:52.549Z,28.84
2022-07-29T18:04:21.246Z,28.96
2022-07-29T18:06:48.148Z,29.48
2022-07-29T18:09:16.076Z,29.91
2022-07-29T18:11:44.476Z,30.02
2022-07-29T18:14:12.810Z,30.32
2022-07-29T18:16:39.901Z,30.67
2022-07-29T18:19:06.904Z,29.32
2022-07-29T18:21:45.973Z,28.81
2022-07-29T18:24:20.685Z,28.40
2022-07-29T18:26:47.457Z,27.36
2022-07-29T18:29:14.235Z,27.41
2022-07-29T18:31:41.398Z,27.57
2022-07-29T18:34:08.478Z,28.04
2022-07-29T18:36:35.276Z,28.22
2022-07-29T18:39:02.238Z,28.02
2022-07-29T18:41:29.340Z,28.24
2022-07-29T18:43:56.205Z,28.76
2022-07-29T18:46:23.085Z,29.08
2022-07-29T18:48:52.605Z,29.67
2022-07-29T18:51:19.490Z,30.34
2022-07-29T18:53:46.396Z,30.93
2022-07-29T18:56:13.232Z,31.61
2022-07-29T18:58:39.963Z,31.88
2022-07-29T19:01:07.686Z,33.30
2022-07-29T19:03:34.984Z,34.52
2022-07-29T19:06:01.857Z,35.86
2022-07-29T19:08:28.774Z,35.98
2022-07-29T19:10:55.572Z,35.39
2022-07-29T19:13:22.984Z,35.27
2022-07-29T19:15:49.864Z,35.32
2022-07-29T19:18:16.636Z,36.07
2022-07-29T19:20:43.387Z,35.81
2022-07-29T19:23:10.284Z,36.01
2022-07-29T19:25:37.633Z,36.42
2022-07-29T19:28:20.866Z,36.02
2022-07-29T19:30:47.857Z,36.54
2022-07-29T19:33:17.695Z,36.29
2022-07-29T19:35:45.975Z,35.24
2022-07-29T19:38:12.799Z,36.05
2022-07-29T19:40:39.625Z,36.25
2022-07-29T19:43:51.993Z,36.30
2022-07-29T19:45:53.755Z,36.17
2022-07-29T19:48:20.604Z,35.21
2022-07-29T19:50:47.546Z,35.21
2022-07-29T19:53:14.487Z,34.41
2022-07-29T19:55:42.204Z,35.14
2022-07-29T19:58:09.084Z,34.13
2022-07-29T20:00:35.945Z,33.54
2022-07-29T20:03:04.877Z,35.79
2022-07-29T20:05:32.047Z,35.92
2022-07-29T20:07:58.933Z,35.05
2022-07-29T20:10:25.999Z,35.85
2022-07-29T20:12:53.770Z,35.74
2022-07-29T20:15:22.016Z,35.77
2022-07-29T20:17:48.875Z,35.15
2022-07-29T20:20:16.129Z,34.96
2022-07-29T20:22:43.309Z,35.61
2022-07-29T20:25:12.024Z,36.94
2022-07-29T20:27:42.895Z,37.55
2022-07-29T20:30:13.494Z,36.78
2022-07-29T20:32:41.610Z,36.17
2022-07-29T20:35:10.138Z,36.43
2022-07-29T20:37:55.499Z,37.12
2022-07-29T20:40:23.195Z,37.32
2022-07-29T20:42:50.165Z,37.20
2022-07-29T20:45:17.036Z,37.69
2022-07-29T20:47:43.791Z,37.41
2022-07-29T20:50:10.896Z,37.32
2022-07-29T20:52:40.686Z,37.82
2022-07-29T20:55:08.906Z,38.33
2022-07-29T20:57:39.047Z,37.59
2022-07-29T21:00:07.987Z,37.89
2022-07-29T21:02:34.966Z,38.05
2022-07-29T21:05:01.893Z,38.32
2022-07-29T21:07:28.707Z,37.33
2022-07-29T21:09:55.494Z,39.59
2022-07-29T21:12:22.877Z,39.46
2022-07-29T21:14:49.964Z,38.96
2022-07-29T21:17:19.570Z,38.29
2022-07-29T21:19:52.749Z,39.07
2022-07-29T21:22:22.204Z,38.36
2022-07-29T21:24:49.520Z,39.96
2022-07-29T21:27:35.346Z,39.49
2022-07-29T21:30:06.666Z,39.35
2022-07-29T21:32:33.477Z,39.88
2022-07-29T21:35:00.448Z,39.86
2022-07-29T21:37:28.215Z,42.38
2022-07-29T21:39:54.988Z,40.06
2022-07-29T21:42:21.954Z,41.25
2022-07-29T21:44:48.887Z,41.22
2022-07-29T21:47:15.627Z,39.33
2022-07-29T21:49:42.586Z,41.28
2022-07-29T21:52:09.357Z,38.77
2022-07-29T21:54:36.206Z,40.98
2022-07-29T21:57:04.033Z,41.29
2022-07-29T21:59:31.652Z,40.42
2022-07-29T22:02:01.214Z,41.12
2022-07-29T22:04:29.117Z,40.74
2022-07-29T22:06:56.585Z,39.22
2022-07-29T22:09:23.811Z,40.54
2022-07-29T22:11:50.586Z,40.10
2022-07-29T22:14:18.589Z,42.15
2022-07-29T22:16:46.237Z,40.91
2022-07-29T22:19:13.535Z,40.92
2022-07-29T22:21:41.357Z,42.80
2022-07-29T22:24:09.965Z,43.14
2022-07-29T22:26:37.546Z,42.80
2022-07-29T22:29:04.491Z,44.47
2022-07-29T22:31:31.386Z,45.17
2022-07-29T22:33:58.169Z,45.75
2022-07-29T22:36:25.675Z,45.85
2022-07-29T22:38:52.395Z,49.10
2022-07-29T22:41:19.251Z,47.16
2022-07-29T22:43:46.007Z,46.65
2022-07-29T22:46:13.069Z,46.20
2022-07-29T22:48:40.023Z,46.22
2022-07-29T22:51:07.288Z,45.97
2022-07-29T22:53:34.069Z,45.32
2022-07-29T22:56:00.955Z,44.76
2022-07-29T22:58:27.757Z,45.29
2022-07-29T23:00:54.686Z,44.48
2022-07-29T23:03:22.401Z,45.99
2022-07-29T23:05:51.651Z,46.55
2022-07-29T23:08:19.392Z,47.21
2022-07-29T23:10:46.347Z,48.30
2022-07-29T23:13:13.706Z,47.58
2022-07-29T23:15:41.046Z,49.38
2022-07-29T23:18:07.936Z,47.69
2022-07-29T23:20:35.127Z,48.67
2022-07-29T23:23:01.944Z,47.79
2022-07-29T23:25:28.975Z,49.01
2022-07-29T23:27:55.757Z,48.57
2022-07-29T23:30:22.595Z,47.51
2022-07-29T23:32:49.463Z,46.69
2022-07-29T23:35:16.328Z,46.22
2022-07-29T23:37:43.145Z,47.15
2022-07-29T23:40:14.210Z,47.77
2022-07-29T23:42:42.820Z,48.05
2022-07-29T23:45:10.910Z,49.45
2022-07-29T23:47:37.759Z,49.89
2022-07-29T23:50:06.289Z,48.71
2022-07-29T23:52:33.456Z,51.35
2022-07-29T23:55:37.407Z,51.03
2022-07-29T23:57:49.374Z,52.02
